Time;durP1;ratioP1;P1;durP2;ratioP2;P2;SDS_P1;SDS_P2;PMS_P1;PMS_P2;Temp;Humidity;BMP_temperature;BMP_pressure;BME280_temperature;BME280_humidity;BME280_pressure;Samples;Min_cycle;Max_cycle;Signal;HPM_P1;HPM_P2
2022/03/21 00:00:38;;;;;;;20.70;16.17;;;;;;;;;;6190598;23;20509;-81
2022/03/21 00:03:04;;;;;;;21.40;15.53;;;;;;;;;;6190146;23;20167;-81
2022/03/21 00:05:30;;;;;;;19.90;15.50;;;;;;;;;;6181279;23;20763;-81
2022/03/21 00:07:57;;;;;;;19.27;15.23;;;;;;;;;;6186621;23;20153;-80
2022/03/21 00:10:23;;;;;;;21.83;15.40;;;;;;;;;;6189381;23;20155;-82
2022/03/21 00:12:51;;;;;;;23.03;17.30;;;;;;;;;;6189467;23;20206;-81
2022/03/21 00:15:17;;;;;;;22.03;16.87;;;;;;;;;;6189276;23;20180;-81
2022/03/21 00:17:44;;;;;;;22.73;15.93;;;;;;;;;;6187812;23;20155;-81
2022/03/21 00:20:10;;;;;;;24.07;15.20;;;;;;;;;;6188684;23;20171;-82
2022/03/21 00:22:37;;;;;;;21.27;15.20;;;;;;;;;;6187099;23;20162;-81
2022/03/21 00:25:04;;;;;;;18.80;15.00;;;;;;;;;;6190268;23;20205;-81
2022/03/21 00:27:30;;;;;;;20.43;15.40;;;;;;;;;;6190335;23;20150;-82
2022/03/21 00:29:56;;;;;;;22.03;15.73;;;;;;;;;;6189559;23;20198;-81
2022/03/21 00:32:22;;;;;;;18.80;15.77;;;;;;;;;;6190157;23;20159;-81
2022/03/21 00:34:48;;;;;;;18.70;14.73;;;;;;;;;;6189734;23;20258;-81
2022/03/21 00:37:14;;;;;;;17.33;14.07;;;;;;;;;;6189747;23;20168;-81
2022/03/21 00:39:41;;;;;;;20.70;16.10;;;;;;;;;;6189586;23;20180;-81
2022/03/21 00:42:07;;;;;;;18.20;14.67;;;;;;;;;;6190593;23;20159;-81
2022/03/21 00:44:33;;;;;;;19.67;14.57;;;;;;;;;;6189262;23;20189;-81
2022/03/21 00:46:59;;;;;;;18.53;14.30;;;;;;;;;;6189885;23;20215;-81
2022/03/21 00:49:25;;;;;;;19.60;15.70;;;;;;;;;;6190111;23;20485;-81
2022/03/21 00:51:51;;;;;;;19.17;15.40;;;;;;;;;;6187791;23;20608;-81
2022/03/21 00:54:17;;;;;;;18.13;14.60;;;;;;;;;;6189787;23;20177;-81
2022/03/21 00:56:43;;;;;;;19.17;14.73;;;;;;;;;;6192769;23;20490;-81
2022/03/21 00:59:09;;;;;;;20.27;15.60;;;;;;;;;;6192403;23;20174;-81
2022/03/21 01:01:36;;;;;;;20.07;15.33;;;;;;;;;;6193060;23;20589;-80
2022/03/21 01:04:02;;;;;;;22.27;15.00;;;;;;;;;;6190756;23;20193;-80
2022/03/21 01:06:29;;;;;;;21.83;16.47;;;;;;;;;;6191650;23;20156;-81
2022/03/21 01:08:55;;;;;;;19.47;15.90;;;;;;;;;;6191708;23;20155;-81
2022/03/21 01:11:22;;;;;;;20.77;15.63;;;;;;;;;;6191291;23;20155;-81
2022/03/21 01:13:48;;;;;;;20.77;16.00;;;;;;;;;;6192877;23;20256;-80
2022/03/21 01:16:15;;;;;;;22.60;17.13;;;;;;;;;;6193099;23;20209;-81
2022/03/21 01:18:44;;;;;;;20.70;14.90;;;;;;;;;;6193169;23;20174;-80
2022/03/21 01:21:10;;;;;;;21.57;15.43;;;;;;;;;;6192963;23;20143;-82
2022/03/21 01:23:37;;;;;;;20.43;15.70;;;;;;;;;;6193861;23;20168;-81
2022/03/21 01:26:03;;;;;;;19.00;15.20;;;;;;;;;;6193065;23;20200;-81
2022/03/21 01:28:29;;;;;;;19.60;15.90;;;;;;;;;;6191050;23;20534;-81
2022/03/21 01:30:55;;;;;;;23.80;16.40;;;;;;;;;;6191546;23;20190;-81
2022/03/21 01:33:21;;;;;;;22.63;16.53;;;;;;;;;;6193305;23;20155;-81
2022/03/21 01:35:47;;;;;;;22.97;16.33;;;;;;;;;;6192717;23;20150;-81
2022/03/21 01:38:13;;;;;;;25.17;17.23;;;;;;;;;;6193026;23;20152;-81
2022/03/21 01:40:39;;;;;;;22.27;16.57;;;;;;;;;;6192256;23;20497;-81
2022/03/21 01:43:12;;;;;;;21.77;16.90;;;;;;;;;;6192652;23;20151;-80
2022/03/21 01:45:39;;;;;;;21.07;15.93;;;;;;;;;;6192734;23;20193;-81
2022/03/21 01:48:05;;;;;;;24.63;17.03;;;;;;;;;;6192943;23;20172;-81
2022/03/21 01:50:31;;;;;;;22.67;16.17;;;;;;;;;;6192901;23;20158;-81
2022/03/21 01:55:43;;;;;;;20.27;15.43;;;;;;;;;;6192468;23;20152;-81
2022/03/21 01:58:09;;;;;;;22.33;15.30;;;;;;;;;;6193180;23;20160;-81
2022/03/21 02:00:35;;;;;;;18.07;15.10;;;;;;;;;;6192998;23;20178;-81
2022/03/21 02:03:01;;;;;;;22.30;16.33;;;;;;;;;;6191028;23;20161;-81
2022/03/21 02:05:28;;;;;;;22.93;15.57;;;;;;;;;;6192050;23;20186;-81
2022/03/21 02:07:54;;;;;;;19.67;15.40;;;;;;;;;;6190231;23;20146;-81
2022/03/21 02:10:20;;;;;;;22.77;16.00;;;;;;;;;;6163803;23;20154;-80
2022/03/21 02:12:46;;;;;;;23.93;15.73;;;;;;;;;;6190522;23;20153;-83
2022/03/21 02:15:12;;;;;;;21.40;16.60;;;;;;;;;;6191135;23;20208;-81
2022/03/21 02:17:40;;;;;;;24.53;15.87;;;;;;;;;;6191948;23;20157;-81
2022/03/21 02:20:06;;;;;;;17.73;14.73;;;;;;;;;;6190606;23;20170;-81
2022/03/21 02:22:32;;;;;;;25.27;15.90;;;;;;;;;;6191199;23;20142;-80
2022/03/21 02:25:03;;;;;;;21.80;15.83;;;;;;;;;;6190516;23;20257;-81
2022/03/21 02:27:30;;;;;;;20.37;14.20;;;;;;;;;;6190239;23;20147;-82
2022/03/21 02:29:57;;;;;;;23.30;15.80;;;;;;;;;;6164310;23;20235;-81
2022/03/21 02:32:23;;;;;;;18.60;14.63;;;;;;;;;;6162531;23;20570;-81
2022/03/21 02:34:49;;;;;;;21.20;14.80;;;;;;;;;;6188100;23;20166;-81
2022/03/21 02:37:17;;;;;;;17.80;14.03;;;;;;;;;;6188871;23;20205;-82
2022/03/21 02:39:44;;;;;;;19.17;14.37;;;;;;;;;;6188591;23;20178;-80
2022/03/21 02:42:10;;;;;;;18.80;15.40;;;;;;;;;;6188983;23;20625;-81
2022/03/21 02:44:37;;;;;;;18.90;14.57;;;;;;;;;;6189916;23;20245;-80
2022/03/21 02:47:04;;;;;;;18.63;13.80;;;;;;;;;;6163646;23;20151;-81
2022/03/21 02:49:30;;;;;;;22.43;15.23;;;;;;;;;;6188696;23;20153;-81
2022/03/21 02:51:56;;;;;;;27.93;16.67;;;;;;;;;;6189988;23;20608;-80
2022/03/21 02:54:23;;;;;;;27.00;16.30;;;;;;;;;;6190073;23;20173;-81
2022/03/21 02:56:49;;;;;;;23.73;16.43;;;;;;;;;;6190418;23;20168;-81
2022/03/21 02:59:19;;;;;;;23.70;16.27;;;;;;;;;;6190709;23;20170;-81
2022/03/21 03:01:45;;;;;;;30.23;17.10;;;;;;;;;;6190303;23;20232;-80
2022/03/21 03:04:11;;;;;;;20.90;15.67;;;;;;;;;;6190172;23;20193;-81
2022/03/21 03:06:40;;;;;;;22.03;15.87;;;;;;;;;;6190833;23;20158;-81
2022/03/21 03:09:09;;;;;;;22.73;15.57;;;;;;;;;;6190554;23;20163;-81
2022/03/21 03:11:38;;;;;;;26.47;16.20;;;;;;;;;;6190253;23;20157;-81
2022/03/21 03:14:05;;;;;;;24.23;16.50;;;;;;;;;;6189759;23;20174;-80
2022/03/21 03:16:31;;;;;;;23.00;16.43;;;;;;;;;;6164033;23;20168;-81
2022/03/21 03:18:57;;;;;;;20.83;16.20;;;;;;;;;;6190667;23;20224;-81
2022/03/21 03:21:24;;;;;;;21.43;15.43;;;;;;;;;;6192354;23;20154;-81
2022/03/21 03:23:51;;;;;;;25.57;16.07;;;;;;;;;;6164028;23;20203;-81
2022/03/21 03:26:17;;;;;;;21.07;15.37;;;;;;;;;;6191705;23;20154;-81
2022/03/21 03:28:44;;;;;;;19.23;15.33;;;;;;;;;;6163792;23;20160;-80
2022/03/21 03:31:10;;;;;;;20.50;15.53;;;;;;;;;;6189851;23;20629;-81
2022/03/21 03:33:36;;;;;;;22.60;16.20;;;;;;;;;;6163895;23;20171;-81
2022/03/21 03:36:03;;;;;;;20.60;14.77;;;;;;;;;;6190247;23;20150;-81
2022/03/21 03:38:29;;;;;;;21.97;16.20;;;;;;;;;;6190476;23;20159;-81
2022/03/21 03:40:55;;;;;;;22.43;16.53;;;;;;;;;;6190085;23;20673;-80
2022/03/21 03:43:21;;;;;;;21.90;15.73;;;;;;;;;;6189914;23;20200;-80
2022/03/21 03:45:52;;;;;;;22.83;15.40;;;;;;;;;;6190321;23;20617;-80
2022/03/21 03:48:19;;;;;;;21.77;16.00;;;;;;;;;;6189991;23;20138;-81
2022/03/21 03:50:45;;;;;;;23.47;15.60;;;;;;;;;;6190588;23;20236;-81
2022/03/21 03:53:11;;;;;;;23.07;15.73;;;;;;;;;;6189105;23;20586;-79
2022/03/21 03:55:37;;;;;;;22.73;15.60;;;;;;;;;;6196729;23;20160;-81
2022/03/21 03:58:03;;;;;;;21.17;15.40;;;;;;;;;;6200244;23;20164;-80
2022/03/21 04:00:29;;;;;;;20.50;15.33;;;;;;;;;;6200482;23;20255;-81
2022/03/21 04:05:40;;;;;;;19.73;15.27;;;;;;;;;;6191432;23;20177;-81
2022/03/21 04:08:07;;;;;;;21.77;15.87;;;;;;;;;;6191630;23;20144;-82
2022/03/21 04:10:33;;;;;;;20.90;15.43;;;;;;;;;;6190643;23;20160;-82
2022/03/21 04:12:59;;;;;;;22.90;16.17;;;;;;;;;;6189727;23;20160;-81
2022/03/21 04:15:26;;;;;;;18.87;14.83;;;;;;;;;;6191214;23;20176;-81
2022/03/21 04:17:53;;;;;;;20.67;14.97;;;;;;;;;;6163709;23;20162;-81
2022/03/21 04:20:21;;;;;;;19.80;15.00;;;;;;;;;;6190217;23;20173;-80
2022/03/21 04:22:47;;;;;;;21.03;15.67;;;;;;;;;;6163723;23;20216;-81
2022/03/21 04:25:14;;;;;;;21.07;15.40;;;;;;;;;;6189990;23;20176;-81
2022/03/21 04:27:40;;;;;;;22.77;16.30;;;;;;;;;;6190301;23;20171;-81
2022/03/21 04:30:07;;;;;;;19.57;15.20;;;;;;;;;;6189477;23;20207;-81
2022/03/21 04:32:33;;;;;;;20.83;15.67;;;;;;;;;;6163457;23;20160;-80
2022/03/21 04:34:59;;;;;;;20.03;15.63;;;;;;;;;;6189199;23;20177;-81
2022/03/21 04:37:25;;;;;;;23.10;15.10;;;;;;;;;;6189833;23;20162;-81
2022/03/21 04:39:51;;;;;;;21.17;15.67;;;;;;;;;;6190505;23;20178;-81
2022/03/21 04:42:17;;;;;;;21.83;16.43;;;;;;;;;;6191473;23;20172;-81
2022/03/21 04:44:48;;;;;;;27.40;16.27;;;;;;;;;;6193876;23;20624;-81
2022/03/21 04:47:14;;;;;;;24.90;16.67;;;;;;;;;;6193193;23;20179;-81
2022/03/21 04:49:40;;;;;;;21.57;14.50;;;;;;;;;;6190544;23;20156;-81
2022/03/21 04:52:06;;;;;;;21.70;15.63;;;;;;;;;;6190663;23;20183;-81
2022/03/21 04:54:33;;;;;;;22.90;15.37;;;;;;;;;;6189379;23;20172;-81
2022/03/21 04:56:59;;;;;;;21.17;16.03;;;;;;;;;;6190438;23;20163;-81
2022/03/21 04:59:25;;;;;;;20.80;15.30;;;;;;;;;;6162675;23;20175;-81
2022/03/21 05:01:51;;;;;;;22.80;15.83;;;;;;;;;;6188325;23;20225;-83
2022/03/21 05:04:19;;;;;;;19.70;14.77;;;;;;;;;;6170317;23;20188;-80
2022/03/21 05:06:46;;;;;;;23.20;15.13;;;;;;;;;;6187915;23;20153;-81
2022/03/21 05:09:12;;;;;;;19.87;15.10;;;;;;;;;;6188561;23;20153;-79
2022/03/21 05:11:39;;;;;;;20.53;15.47;;;;;;;;;;6188155;23;20150;-81
2022/03/21 05:14:05;;;;;;;21.20;14.57;;;;;;;;;;6189556;23;20169;-81
2022/03/21 05:16:32;;;;;;;28.57;16.30;;;;;;;;;;6188908;23;20160;-81
2022/03/21 05:18:58;;;;;;;23.40;15.03;;;;;;;;;;6190457;23;20526;-81
2022/03/21 05:21:24;;;;;;;20.50;15.30;;;;;;;;;;6190830;23;20164;-81
2022/03/21 05:32:04;;;;;;;23.83;15.97;;;;;;;;;;6188844;23;20201;-80
2022/03/21 05:37:14;;;;;;;26.40;16.00;;;;;;;;;;6190005;23;20147;-82
2022/03/21 05:40:31;;;;;;;22.20;15.50;;;;;;;;;;6189103;23;20176;-80
2022/03/21 05:42:26;;;;;;;23.57;15.60;;;;;;;;;;6188599;23;20228;-81
2022/03/21 05:44:52;;;;;;;22.83;15.63;;;;;;;;;;6191747;23;20169;-81
2022/03/21 05:47:19;;;;;;;24.97;16.60;;;;;;;;;;6191431;23;20167;-81
2022/03/21 05:49:45;;;;;;;21.93;15.23;;;;;;;;;;6191325;23;20155;-81
2022/03/21 05:52:11;;;;;;;21.33;14.67;;;;;;;;;;6191625;23;20156;-81
2022/03/21 05:54:37;;;;;;;21.27;15.53;;;;;;;;;;6191297;23;20175;-80
2022/03/21 05:57:03;;;;;;;22.03;16.30;;;;;;;;;;6191556;23;20159;-81
2022/03/21 06:02:14;;;;;;;23.00;16.17;;;;;;;;;;6191696;23;20193;-82
2022/03/21 06:04:40;;;;;;;21.10;14.93;;;;;;;;;;6190849;23;20189;-81
2022/03/21 06:07:06;;;;;;;21.53;15.50;;;;;;;;;;6140411;23;20239;-81
2022/03/21 06:09:32;;;;;;;20.87;15.90;;;;;;;;;;6196746;23;20147;-80
2022/03/21 06:11:58;;;;;;;22.80;15.30;;;;;;;;;;6199642;23;20153;-82
2022/03/21 06:14:24;;;;;;;23.17;15.77;;;;;;;;;;6192889;23;20171;-81
2022/03/21 06:16:50;;;;;;;21.33;15.73;;;;;;;;;;6190549;23;20158;-81
2022/03/21 06:19:18;;;;;;;23.53;15.80;;;;;;;;;;6162785;23;20179;-81
2022/03/21 06:21:44;;;;;;;23.37;15.43;;;;;;;;;;6190986;23;20148;-82
2022/03/21 06:24:12;;;;;;;22.90;15.73;;;;;;;;;;6191021;23;20183;-81
2022/03/21 06:26:39;;;;;;;22.37;16.30;;;;;;;;;;6190520;23;20210;-81
2022/03/21 06:29:05;;;;;;;22.67;15.50;;;;;;;;;;6190675;23;20172;-82
2022/03/21 06:31:31;;;;;;;27.40;16.07;;;;;;;;;;6189232;23;20151;-82
2022/03/21 06:33:57;;;;;;;22.30;15.27;;;;;;;;;;6164812;23;20268;-81
2022/03/21 06:36:23;;;;;;;23.27;15.60;;;;;;;;;;6190670;23;20159;-81
2022/03/21 06:38:49;;;;;;;21.30;15.67;;;;;;;;;;6165580;23;20178;-81
2022/03/21 06:41:16;;;;;;;22.77;16.30;;;;;;;;;;6164158;23;20239;-81
2022/03/21 06:43:42;;;;;;;18.20;14.93;;;;;;;;;;6164010;23;20180;-81
2022/03/21 06:46:08;;;;;;;23.50;16.40;;;;;;;;;;6166051;23;20222;-84
2022/03/21 06:48:34;;;;;;;22.17;16.43;;;;;;;;;;6165200;23;20153;-81
2022/03/21 06:51:00;;;;;;;23.30;15.27;;;;;;;;;;6190965;23;20583;-78
2022/03/21 06:53:26;;;;;;;20.70;15.47;;;;;;;;;;6189339;23;20761;-78
2022/03/21 06:55:52;;;;;;;23.30;15.73;;;;;;;;;;6190143;23;20158;-80
2022/03/21 06:58:18;;;;;;;21.10;14.70;;;;;;;;;;6190093;23;20604;-80
2022/03/21 07:00:46;;;;;;;20.80;15.53;;;;;;;;;;6189762;23;20208;-78
2022/03/21 07:03:15;;;;;;;19.77;15.03;;;;;;;;;;6190383;23;20149;-79
2022/03/21 07:05:41;;;;;;;20.60;14.70;;;;;;;;;;6189567;23;20176;-80
2022/03/21 07:08:07;;;;;;;21.30;14.77;;;;;;;;;;6190296;23;20156;-80
2022/03/21 07:10:33;;;;;;;18.93;13.73;;;;;;;;;;6163265;23;20157;-80
2022/03/21 07:13:04;;;;;;;20.50;14.17;;;;;;;;;;6190470;23;20661;-80
2022/03/21 07:15:30;;;;;;;18.40;14.03;;;;;;;;;;6190946;23;20176;-80
2022/03/21 07:17:56;;;;;;;17.17;14.23;;;;;;;;;;6190178;23;20161;-81
2022/03/21 07:20:25;;;;;;;18.63;14.33;;;;;;;;;;6189227;23;20181;-81
2022/03/21 07:22:52;;;;;;;19.30;13.63;;;;;;;;;;6190451;23;20154;-80
2022/03/21 07:25:18;;;;;;;16.37;13.57;;;;;;;;;;6162498;23;20174;-80
2022/03/21 07:27:45;;;;;;;17.60;13.13;;;;;;;;;;6189007;23;20156;-79
2022/03/21 07:30:12;;;;;;;19.63;13.83;;;;;;;;;;6164270;23;20155;-80
2022/03/21 07:32:38;;;;;;;23.30;14.33;;;;;;;;;;6139674;23;20178;-80
2022/03/21 07:35:04;;;;;;;17.87;13.70;;;;;;;;;;6190840;23;20686;-80
2022/03/21 07:37:39;;;;;;;18.87;14.10;;;;;;;;;;6163746;23;20158;-81
2022/03/21 07:40:05;;;;;;;18.97;13.17;;;;;;;;;;6191897;23;20166;-80
2022/03/21 07:42:33;;;;;;;19.03;13.63;;;;;;;;;;6197488;23;20153;-81
2022/03/21 07:47:44;;;;;;;18.87;14.20;;;;;;;;;;6191334;23;20150;-81
2022/03/21 07:50:11;;;;;;;18.80;14.10;;;;;;;;;;6190474;23;20174;-81
2022/03/21 07:52:37;;;;;;;20.50;14.03;;;;;;;;;;6190608;23;20150;-80
2022/03/21 07:55:03;;;;;;;19.43;14.10;;;;;;;;;;6190238;23;20639;-81
2022/03/21 07:57:29;;;;;;;19.03;13.57;;;;;;;;;;6164193;23;20155;-81
2022/03/21 07:59:56;;;;;;;17.33;14.43;;;;;;;;;;6189353;23;20174;-80
2022/03/21 08:02:22;;;;;;;22.23;16.60;;;;;;;;;;6162633;23;20219;-81
2022/03/21 08:04:50;;;;;;;20.03;15.37;;;;;;;;;;6189517;23;20535;-81
2022/03/21 08:07:16;;;;;;;20.57;14.40;;;;;;;;;;6138907;23;20713;-81
2022/03/21 08:09:42;;;;;;;19.63;14.93;;;;;;;;;;6189650;23;20181;-81
2022/03/21 08:12:08;;;;;;;22.10;15.57;;;;;;;;;;6189557;23;20624;-81
2022/03/21 08:14:35;;;;;;;22.33;16.40;;;;;;;;;;6189805;23;20277;-80
2022/03/21 08:17:01;;;;;;;18.30;14.43;;;;;;;;;;6162843;23;20289;-80
2022/03/21 08:19:28;;;;;;;18.53;14.83;;;;;;;;;;6163371;23;20180;-81
2022/03/21 08:21:54;;;;;;;21.60;15.67;;;;;;;;;;6163647;23;20150;-81
2022/03/21 08:24:21;;;;;;;23.27;16.17;;;;;;;;;;6189886;23;20197;-80
2022/03/21 08:26:47;;;;;;;20.13;15.37;;;;;;;;;;6189738;23;20222;-81
2022/03/21 08:29:13;;;;;;;22.73;15.77;;;;;;;;;;6189806;23;20154;-81
2022/03/21 08:31:39;;;;;;;21.00;15.93;;;;;;;;;;6190193;23;20155;-81
2022/03/21 08:34:05;;;;;;;21.67;15.83;;;;;;;;;;6162635;23;20175;-81
2022/03/21 08:36:31;;;;;;;23.90;16.60;;;;;;;;;;6163237;23;20183;-81
2022/03/21 08:38:58;;;;;;;24.17;15.37;;;;;;;;;;6189525;23;20188;-81
2022/03/21 08:41:24;;;;;;;20.27;15.90;;;;;;;;;;6189260;23;20147;-80
2022/03/21 08:43:50;;;;;;;19.77;16.13;;;;;;;;;;6189547;23;20172;-81
2022/03/21 08:46:16;;;;;;;25.30;16.40;;;;;;;;;;6188754;23;20152;-81
2022/03/21 08:51:27;;;;;;;20.93;16.50;;;;;;;;;;6188552;23;20237;-81
2022/03/21 08:53:53;;;;;;;20.17;15.53;;;;;;;;;;6162909;23;20170;-81
2022/03/21 08:56:19;;;;;;;24.57;16.27;;;;;;;;;;6188869;23;20165;-82
2022/03/21 08:58:45;;;;;;;21.13;15.67;;;;;;;;;;6188827;23;20144;-80
2022/03/21 09:01:11;;;;;;;19.57;15.27;;;;;;;;;;6162134;23;20185;-81
2022/03/21 09:03:37;;;;;;;23.27;16.10;;;;;;;;;;6189575;23;20495;-81
2022/03/21 09:06:03;;;;;;;21.63;15.87;;;;;;;;;;6189531;23;20130;-81
2022/03/21 09:08:29;;;;;;;22.80;15.50;;;;;;;;;;6189472;23;20151;-81
2022/03/21 09:10:55;;;;;;;20.73;16.10;;;;;;;;;;6189283;23;20184;-81
2022/03/21 09:13:23;;;;;;;18.90;15.73;;;;;;;;;;6189466;23;20157;-81
2022/03/21 09:15:49;;;;;;;23.00;16.63;;;;;;;;;;6189506;23;20156;-81
2022/03/21 09:18:15;;;;;;;23.90;16.40;;;;;;;;;;6191575;23;20155;-81
2022/03/21 09:20:41;;;;;;;20.33;15.90;;;;;;;;;;6190756;23;20184;-81
2022/03/21 09:23:07;;;;;;;20.30;15.93;;;;;;;;;;6190532;23;20254;-81
2022/03/21 09:25:34;;;;;;;21.53;16.60;;;;;;;;;;6190884;23;20160;-81
2022/03/21 09:28:00;;;;;;;23.80;15.50;;;;;;;;;;6191554;23;20486;-81
2022/03/21 09:30:26;;;;;;;21.03;16.37;;;;;;;;;;6191937;23;20153;-80
2022/03/21 09:32:52;;;;;;;22.40;16.00;;;;;;;;;;6191426;23;20156;-81
2022/03/21 09:35:18;;;;;;;21.60;15.70;;;;;;;;;;6164439;23;20182;-81
2022/03/21 09:37:44;;;;;;;18.00;15.10;;;;;;;;;;6164618;23;20551;-82
2022/03/21 09:40:11;;;;;;;19.20;14.73;;;;;;;;;;6164104;23;20257;-82
2022/03/21 09:42:39;;;;;;;23.70;16.87;;;;;;;;;;6190964;23;20146;-81
2022/03/21 09:45:06;;;;;;;19.43;15.90;;;;;;;;;;6191484;23;20249;-81
2022/03/21 09:50:18;;;;;;;21.53;15.47;;;;;;;;;;6191646;23;20250;-81
2022/03/21 09:52:45;;;;;;;19.10;14.50;;;;;;;;;;6190870;23;20154;-81
2022/03/21 09:55:11;;;;;;;22.23;15.53;;;;;;;;;;6190757;23;20240;-81
2022/03/21 09:57:37;;;;;;;19.77;15.23;;;;;;;;;;6165311;23;20599;-82
2022/03/21 10:00:04;;;;;;;17.67;14.47;;;;;;;;;;6191362;23;20181;-82
2022/03/21 10:02:30;;;;;;;20.40;15.50;;;;;;;;;;6191350;23;20150;-82
2022/03/21 10:04:56;;;;;;;20.37;16.07;;;;;;;;;;6191451;23;20260;-82
2022/03/21 10:07:26;;;;;;;25.93;15.83;;;;;;;;;;6191909;23;20152;-82
2022/03/21 10:10:09;;;;;;;19.60;13.77;;;;;;;;;;6189305;23;20151;-82
2022/03/21 10:12:35;;;;;;;25.23;15.40;;;;;;;;;;6164414;23;20160;-82
2022/03/21 10:15:04;;;;;;;21.77;14.70;;;;;;;;;;6191174;23;20182;-80
2022/03/21 10:17:30;;;;;;;29.07;14.83;;;;;;;;;;6191704;23;20199;-82
2022/03/21 10:19:56;;;;;;;21.80;14.37;;;;;;;;;;6165660;23;20548;-82
2022/03/21 10:22:36;;;;;;;18.43;14.10;;;;;;;;;;6191375;23;20156;-82
2022/03/21 10:25:03;;;;;;;21.83;15.17;;;;;;;;;;6192025;23;20236;-82
2022/03/21 10:27:31;;;;;;;21.50;14.40;;;;;;;;;;6192288;23;20160;-82
2022/03/21 10:30:02;;;;;;;17.77;13.90;;;;;;;;;;6193126;23;20201;-82
2022/03/21 10:32:35;;;;;;;18.83;14.23;;;;;;;;;;6169613;23;20174;-82
2022/03/21 10:35:03;;;;;;;19.33;14.07;;;;;;;;;;6196235;23;20181;-81
2022/03/21 10:37:40;;;;;;;22.40;14.33;;;;;;;;;;6164844;23;20170;-82
2022/03/21 10:40:16;;;;;;;20.37;14.67;;;;;;;;;;6165129;23;20189;-82
2022/03/21 10:42:55;;;;;;;30.57;14.87;;;;;;;;;;6191870;23;20166;-82
2022/03/21 10:45:22;;;;;;;22.33;14.07;;;;;;;;;;6191810;23;20162;-82
2022/03/21 10:47:55;;;;;;;25.03;14.73;;;;;;;;;;6190947;23;20229;-82
2022/03/21 10:50:47;;;;;;;21.63;14.00;;;;;;;;;;6165336;23;20154;-83
2022/03/21 10:53:14;;;;;;;17.67;14.23;;;;;;;;;;6186536;23;20150;-83
2022/03/21 10:55:41;;;;;;;22.13;14.30;;;;;;;;;;6191440;23;20151;-82
2022/03/21 10:58:08;;;;;;;20.10;15.00;;;;;;;;;;6191289;23;20536;-82
2022/03/21 11:00:34;;;;;;;17.00;14.03;;;;;;;;;;6190842;23;20199;-82
2022/03/21 11:03:15;;;;;;;17.50;14.40;;;;;;;;;;6190645;23;20144;-84
2022/03/21 11:05:46;;;;;;;19.90;14.27;;;;;;;;;;6188923;23;20166;-83
2022/03/21 11:08:13;;;;;;;18.93;14.40;;;;;;;;;;6191957;23;20139;-82
2022/03/21 11:10:39;;;;;;;20.30;13.63;;;;;;;;;;6190734;23;20711;-82
2022/03/21 11:13:06;;;;;;;18.97;15.00;;;;;;;;;;6191184;23;20158;-83
2022/03/21 11:15:35;;;;;;;16.87;14.93;;;;;;;;;;6190976;23;20182;-83
2022/03/21 11:18:01;;;;;;;16.73;14.40;;;;;;;;;;6191330;23;20154;-82
2022/03/21 11:20:31;;;;;;;20.53;13.93;;;;;;;;;;6190275;23;20179;-83
2022/03/21 11:23:00;;;;;;;21.53;14.50;;;;;;;;;;6190482;23;20146;-83
2022/03/21 11:25:31;;;;;;;18.00;13.83;;;;;;;;;;6191532;23;20219;-84
2022/03/21 11:28:12;;;;;;;17.17;14.27;;;;;;;;;;6191889;23;20214;-82
2022/03/21 11:30:41;;;;;;;18.37;14.27;;;;;;;;;;6193467;23;20163;-83
2022/03/21 11:33:07;;;;;;;22.43;14.53;;;;;;;;;;6192467;23;20147;-83
2022/03/21 11:35:34;;;;;;;22.23;14.30;;;;;;;;;;6192536;23;20177;-83
2022/03/21 11:38:19;;;;;;;16.77;14.07;;;;;;;;;;6191282;23;20155;-84
2022/03/21 11:40:45;;;;;;;18.93;14.80;;;;;;;;;;6193050;23;20175;-84
2022/03/21 11:43:25;;;;;;;17.23;14.00;;;;;;;;;;6192314;23;20150;-83
2022/03/21 11:45:55;;;;;;;15.43;13.87;;;;;;;;;;6204839;23;20155;-83
2022/03/21 11:48:24;;;;;;;21.50;14.23;;;;;;;;;;6202673;23;20149;-84
2022/03/21 11:50:50;;;;;;;19.23;14.00;;;;;;;;;;6196086;23;20174;-84
2022/03/21 11:53:16;;;;;;;19.33;14.50;;;;;;;;;;6193017;23;20159;-84
2022/03/21 11:55:46;;;;;;;18.50;14.20;;;;;;;;;;6193459;23;20438;-84
2022/03/21 11:58:31;;;;;;;18.23;14.90;;;;;;;;;;6193064;23;20150;-84
2022/03/21 12:01:09;;;;;;;17.90;14.20;;;;;;;;;;6193498;23;20185;-84
2022/03/21 12:03:36;;;;;;;15.63;14.03;;;;;;;;;;6192757;23;20221;-83
2022/03/21 12:06:23;;;;;;;19.13;13.63;;;;;;;;;;6193113;23;20138;-84
2022/03/21 12:08:53;;;;;;;22.53;15.27;;;;;;;;;;6192678;23;20153;-84
2022/03/21 12:11:38;;;;;;;18.43;14.40;;;;;;;;;;6165705;23;20154;-84
2022/03/21 12:14:22;;;;;;;18.83;14.50;;;;;;;;;;6192842;23;20171;-83
2022/03/21 12:17:08;;;;;;;16.70;13.93;;;;;;;;;;6165680;23;20154;-84
2022/03/21 12:20:01;;;;;;;19.00;12.97;;;;;;;;;;6165370;23;20189;-85
2022/03/21 12:22:34;;;;;;;18.60;13.23;;;;;;;;;;6194212;23;20142;-85
2022/03/21 12:25:01;;;;;;;17.17;12.10;;;;;;;;;;6194014;23;20191;-85
2022/03/21 12:27:48;;;;;;;18.37;12.63;;;;;;;;;;6194645;23;20167;-85
2022/03/21 12:30:30;;;;;;;16.60;12.47;;;;;;;;;;6193601;23;20155;-85
2022/03/21 12:33:15;;;;;;;14.90;13.10;;;;;;;;;;6193585;23;20130;-84
2022/03/21 12:35:45;;;;;;;20.80;14.47;;;;;;;;;;6192557;23;20156;-84
2022/03/21 12:38:11;;;;;;;19.23;12.03;;;;;;;;;;6192671;23;20221;-85
2022/03/21 12:41:02;;;;;;;17.13;12.90;;;;;;;;;;6191994;23;20513;-84
2022/03/21 12:43:29;;;;;;;17.90;14.17;;;;;;;;;;6191802;23;20154;-83
2022/03/21 12:45:58;;;;;;;19.90;14.47;;;;;;;;;;6192484;23;20151;-83
2022/03/21 12:48:28;;;;;;;17.50;14.37;;;;;;;;;;6193365;23;20494;-83
2022/03/21 12:50:54;;;;;;;19.53;14.57;;;;;;;;;;6166684;23;20156;-84
2022/03/21 12:53:21;;;;;;;19.93;14.10;;;;;;;;;;6192696;23;20156;-83
2022/03/21 12:55:59;;;;;;;14.50;13.00;;;;;;;;;;6165965;23;20587;-83
2022/03/21 12:58:25;;;;;;;16.83;13.50;;;;;;;;;;6164975;23;20185;-84
2022/03/21 13:00:51;;;;;;;16.50;13.63;;;;;;;;;;6191334;23;20526;-83
2022/03/21 13:03:17;;;;;;;18.07;13.77;;;;;;;;;;6190546;23;20185;-84
2022/03/21 13:11:21;;;;;;;19.47;13.20;;;;;;;;;;6191710;23;20153;-82
2022/03/21 13:13:53;;;;;;;20.20;14.43;;;;;;;;;;6164529;23;20183;-83
2022/03/21 13:16:19;;;;;;;20.33;14.30;;;;;;;;;;6191677;23;20138;-84
2022/03/21 13:18:45;;;;;;;18.33;14.33;;;;;;;;;;6166376;23;20502;-82
2022/03/21 13:21:11;;;;;;;19.27;14.43;;;;;;;;;;6191601;23;20186;-85
2022/03/21 13:23:37;;;;;;;17.93;14.60;;;;;;;;;;6192239;23;20567;-84
2022/03/21 13:26:08;;;;;;;19.33;14.57;;;;;;;;;;6191625;23;20200;-84
2022/03/21 13:28:34;;;;;;;20.23;14.07;;;;;;;;;;6192086;23;20160;-85
2022/03/21 13:31:02;;;;;;;19.83;14.60;;;;;;;;;;6164819;23;20162;-84
2022/03/21 13:33:30;;;;;;;19.80;14.03;;;;;;;;;;6190699;23;20154;-83
2022/03/21 13:36:02;;;;;;;22.17;14.73;;;;;;;;;;6190740;23;20178;-84
2022/03/21 13:38:28;;;;;;;21.13;15.17;;;;;;;;;;6189205;23;20591;-83
2022/03/21 13:40:54;;;;;;;18.37;14.03;;;;;;;;;;6191415;23;20611;-84
2022/03/21 13:43:22;;;;;;;25.90;14.40;;;;;;;;;;6191505;23;20269;-84
2022/03/21 13:45:48;;;;;;;21.70;14.57;;;;;;;;;;6164702;23;20150;-83
2022/03/21 13:48:33;;;;;;;21.40;15.20;;;;;;;;;;6191058;23;20151;-84
2022/03/21 13:51:16;;;;;;;18.70;14.87;;;;;;;;;;6165148;23;20213;-84
2022/03/21 13:53:42;;;;;;;19.23;14.70;;;;;;;;;;6190818;23;20176;-83
2022/03/21 13:56:09;;;;;;;18.97;14.37;;;;;;;;;;6164921;23;20158;-83
2022/03/21 13:58:36;;;;;;;28.83;14.07;;;;;;;;;;6190659;23;20146;-83
2022/03/21 14:01:02;;;;;;;20.33;13.30;;;;;;;;;;6190295;23;20193;-83
2022/03/21 14:03:34;;;;;;;16.60;13.37;;;;;;;;;;6165327;23;20158;-83
2022/03/21 14:06:00;;;;;;;24.30;14.93;;;;;;;;;;6167695;23;20150;-83
2022/03/21 14:08:26;;;;;;;24.87;15.63;;;;;;;;;;6193426;23;20151;-81
2022/03/21 14:10:53;;;;;;;19.17;12.47;;;;;;;;;;6194188;23;20157;-82
2022/03/21 14:13:24;;;;;;;15.90;9.80;;;;;;;;;;6166801;23;20509;-84
2022/03/21 14:15:51;;;;;;;16.00;10.50;;;;;;;;;;6193745;23;20149;-82
2022/03/21 14:18:18;;;;;;;15.17;10.47;;;;;;;;;;6194108;23;20466;-83
2022/03/21 14:20:44;;;;;;;14.27;10.73;;;;;;;;;;6192892;23;20497;-83
2022/03/21 14:23:10;;;;;;;17.67;11.33;;;;;;;;;;6167316;23;20193;-84
2022/03/21 14:28:21;;;;;;;15.37;10.80;;;;;;;;;;6194451;23;20189;-83
2022/03/21 14:30:47;;;;;;;13.03;10.73;;;;;;;;;;6193639;23;20153;-83
2022/03/21 14:33:13;;;;;;;18.37;10.47;;;;;;;;;;6194272;23;20157;-83
2022/03/21 14:35:39;;;;;;;16.60;10.03;;;;;;;;;;6192275;23;20192;-83
2022/03/21 14:38:05;;;;;;;17.87;11.00;;;;;;;;;;6193676;23;20149;-83
2022/03/21 14:40:31;;;;;;;16.63;10.67;;;;;;;;;;6191859;23;20203;-83
2022/03/21 14:42:57;;;;;;;21.57;10.73;;;;;;;;;;6192257;23;20143;-83
2022/03/21 14:45:23;;;;;;;15.13;9.60;;;;;;;;;;6156296;23;20204;-76
2022/03/21 14:47:49;;;;;;;17.10;10.20;;;;;;;;;;6158631;23;20537;-77
2022/03/21 14:50:16;;;;;;;18.63;10.17;;;;;;;;;;6157754;23;20186;-80
2022/03/21 14:52:43;;;;;;;18.97;10.93;;;;;;;;;;6161446;23;20165;-81
2022/03/21 14:55:09;;;;;;;21.63;9.53;;;;;;;;;;6161471;23;20174;-80